메인 페이지
METAR-TAF:

METAR-TAF

공항 :

Montrose Regional Airport

Montrose, 콜로라도, 미국

위도: 38-30-18N, 경도: 107-53-51W, 고도: 1755m

현재 날씨관측

예보는 1 시간 14분 전, 10:53시(UTC)에 발표되었습니다.
남남동7kt
온도 -6°C
습도 73%
기압 1028 hPa
시정: 16.1km
맑음

METAR: KMTJ 201053Z AUTO 15007KT 10SM CLR M06/M10 A3035 RMK AO2 SLP287 T10561100

시각: 05:07 (12:07 UTC)

예보

예보는 45분 전, 11:22시(UTC)에 발표되었습니다.
예보 대상 시간: 20일 12시부터 21일 12시까지 (UTC)
여러 방향의 바람 4kt
시정: 10km
고도 25000ft 상공 구름 조금
21일 0200시부터 (UTC)
남동5kt
시정: 10km
고도 25000ft 상공 흐림

TAF: KMTJ 201122Z 2012/2112 VRB04KT P6SM FEW250 FM210200 13005KT P6SM OVC250

4,000개 이상의 공항 관측 자료 및 예보 (METAR 및 TAF 보고).

지도상에서 검색 가능한 기상관측소가 노란 점과 빨간 점으로 표시되어 있습니다.

기상관측소 명을 보려면 표시 위로 마우스를 이동하세요.

날씨 관측과 예보를 보려면 클릭하세요.

지도 변경 : 확대하려면 엑스 표시가 있는 녹색 버튼, 축소하려면 빼기 표시가 있는 녹색 버튼, 다음 페이지의 지도를 보려면 녹색 화살표를 클릭하세요.


METAR-TAF: